SJX930 RCTP-RKSI
Flight info
| Callsign | SJX930 |
|---|---|
| Flight time | N/A |
| Altitude | 39000 |
| Route | PIANO1A PIANO L3 SALMI B576 CJU Y722 OLMEN OLMEN2E |
| Aircraft | A359/H-SDE2E3GHIJ3J4J5LM1ORWXY/LB1D1 |
Departure
| Time | 2026-05-07 20:58 |
|---|---|
| Airport | Taiwan Taoyuan International Airport (RCTP) |
Arrival
| Time | N/A |
|---|---|
| Airport | Incheon International Airport (RKSI) |
| Time | Latitude | Longitude | Altitude | Speed | Heading |
|---|---|---|---|---|---|
| 2026-05-07 20:28 | 25.07735 | 121.23605 | 105 ft | 0 kts | 319° |
| 2026-05-07 20:48 | 25.07731 | 121.23609 | 105 ft | 3 kts | 319° |
| 2026-05-07 20:48 | 25.07711 | 121.23628 | 104 ft | 4 kts | 319° |
| 2026-05-07 20:48 | 25.07690 | 121.23648 | 104 ft | 4 kts | 319° |
| 2026-05-07 20:48 | 25.07670 | 121.23667 | 104 ft | 4 kts | 319° |
| 2026-05-07 20:49 | 25.07653 | 121.23683 | 104 ft | 4 kts | 311° |
| 2026-05-07 20:49 | 25.07650 | 121.23698 | 104 ft | 4 kts | 231° |
| 2026-05-07 20:49 | 25.07667 | 121.23720 | 105 ft | 4 kts | 229° |
| 2026-05-07 20:49 | 25.07682 | 121.23740 | 105 ft | 1 kts | 229° |
| 2026-05-07 20:50 | 25.07683 | 121.23740 | 105 ft | 0 kts | 229° |
| 2026-05-07 20:52 | 25.07682 | 121.23740 | 105 ft | 0 kts | 229° |
| 2026-05-07 20:52 | 25.07657 | 121.23708 | 104 ft | 11 kts | 225° |
| 2026-05-07 20:52 | 25.07568 | 121.23725 | 103 ft | 19 kts | 139° |
| 2026-05-07 20:52 | 25.07467 | 121.23775 | 106 ft | 13 kts | 202° |
| 2026-05-07 20:53 | 25.07393 | 121.23696 | 105 ft | 17 kts | 229° |
| 2026-05-07 20:53 | 25.07315 | 121.23596 | 105 ft | 18 kts | 229° |
| 2026-05-07 20:53 | 25.07231 | 121.23489 | 106 ft | 19 kts | 228° |
| 2026-05-07 20:53 | 25.07142 | 121.23376 | 105 ft | 20 kts | 229° |
| 2026-05-07 20:54 | 25.07048 | 121.23257 | 106 ft | 21 kts | 229° |
| 2026-05-07 20:54 | 25.06948 | 121.23131 | 106 ft | 22 kts | 229° |
| 2026-05-07 20:54 | 25.06844 | 121.22998 | 105 ft | 23 kts | 229° |
| 2026-05-07 20:54 | 25.06735 | 121.22859 | 105 ft | 24 kts | 229° |
| 2026-05-07 20:55 | 25.06621 | 121.22716 | 105 ft | 25 kts | 229° |
| 2026-05-07 20:55 | 25.06526 | 121.22595 | 104 ft | 20 kts | 229° |
| 2026-05-07 20:55 | 25.06432 | 121.22476 | 106 ft | 21 kts | 229° |
| 2026-05-07 20:55 | 25.06335 | 121.22353 | 105 ft | 17 kts | 229° |
| 2026-05-07 20:56 | 25.06269 | 121.22269 | 106 ft | 13 kts | 228° |
| 2026-05-07 20:56 | 25.06189 | 121.22266 | 105 ft | 13 kts | 141° |
| 2026-05-07 20:56 | 25.06118 | 121.22346 | 105 ft | 16 kts | 115° |
| 2026-05-07 20:56 | 25.06155 | 121.22447 | 104 ft | 16 kts | 49° |
| 2026-05-07 20:57 | 25.06239 | 121.22552 | 104 ft | 25 kts | 49° |
| 2026-05-07 20:57 | 25.06501 | 121.22885 | 102 ft | 90 kts | 49° |
| 2026-05-07 20:57 | 25.07042 | 121.23570 | 102 ft | 145 kts | 49° |
| 2026-05-07 20:57 | 25.07783 | 121.24514 | 399 ft | 166 kts | 48° |
| 2026-05-07 20:58 | 25.08516 | 121.25453 | 1056 ft | 164 kts | 48° |
| 2026-05-07 20:58 | 25.09291 | 121.26435 | 1480 ft | 178 kts | 48° |
| 2026-05-07 20:58 | 25.10145 | 121.27562 | 1760 ft | 199 kts | 49° |
| 2026-05-07 20:58 | 25.11164 | 121.28701 | 2016 ft | 221 kts | 33° |
| 2026-05-07 20:59 | 25.12686 | 121.29202 | 2277 ft | 242 kts | 0° |
| 2026-05-07 20:59 | 25.14400 | 121.29156 | 2733 ft | 256 kts | 356° |
| 2026-05-07 20:59 | 25.16203 | 121.29050 | 3375 ft | 263 kts | 356° |
| 2026-05-07 20:59 | 25.18048 | 121.28955 | 4035 ft | 268 kts | 356° |
| 2026-05-07 21:00 | 25.19931 | 121.28871 | 4663 ft | 274 kts | 356° |
| 2026-05-07 21:00 | 25.21851 | 121.28794 | 5290 ft | 279 kts | 355° |
| 2026-05-07 21:00 | 25.23805 | 121.28719 | 5985 ft | 282 kts | 355° |
| 2026-05-07 21:00 | 25.25776 | 121.28645 | 6673 ft | 285 kts | 355° |
| 2026-05-07 21:01 | 25.27767 | 121.28571 | 7377 ft | 287 kts | 355° |
| 2026-05-07 21:01 | 25.29773 | 121.28498 | 8118 ft | 290 kts | 355° |
| 2026-05-07 21:01 | 25.31801 | 121.28424 | 8890 ft | 292 kts | 355° |
| 2026-05-07 21:01 | 25.33831 | 121.28350 | 9691 ft | 294 kts | 355° |
| 2026-05-07 21:02 | 25.35897 | 121.28284 | 10304 ft | 302 kts | 356° |
| 2026-05-07 21:02 | 25.38049 | 121.28571 | 10595 ft | 324 kts | 14° |
| 2026-05-07 21:02 | 25.40084 | 121.29793 | 10895 ft | 346 kts | 39° |
| 2026-05-07 21:02 | 25.41781 | 121.31758 | 11209 ft | 362 kts | 48° |
| 2026-05-07 21:03 | 25.43438 | 121.33920 | 11566 ft | 374 kts | 49° |
| 2026-05-07 21:03 | 25.45138 | 121.36139 | 12087 ft | 380 kts | 48° |
| 2026-05-07 21:03 | 25.46864 | 121.38378 | 12605 ft | 386 kts | 48° |
| 2026-05-07 21:03 | 25.48621 | 121.40644 | 13150 ft | 391 kts | 48° |
| 2026-05-07 21:04 | 25.50410 | 121.42942 | 13683 ft | 395 kts | 47° |
| 2026-05-07 21:04 | 25.52214 | 121.45255 | 14191 ft | 399 kts | 47° |
| 2026-05-07 21:04 | 25.54034 | 121.47586 | 14696 ft | 402 kts | 47° |
| 2026-05-07 21:04 | 25.55865 | 121.49932 | 15215 ft | 404 kts | 47° |
| 2026-05-07 21:05 | 25.57715 | 121.52302 | 15692 ft | 407 kts | 47° |
| 2026-05-07 21:05 | 25.59547 | 121.54650 | 16169 ft | 411 kts | 47° |
| 2026-05-07 21:05 | 25.61420 | 121.57051 | 16638 ft | 414 kts | 47° |
| 2026-05-07 21:05 | 25.63312 | 121.59478 | 17139 ft | 417 kts | 47° |
| 2026-05-07 21:06 | 25.65213 | 121.61916 | 17601 ft | 420 kts | 47° |
| 2026-05-07 21:06 | 25.67126 | 121.64373 | 18076 ft | 423 kts | 47° |
| 2026-05-07 21:06 | 25.69053 | 121.66848 | 18503 ft | 426 kts | 47° |
| 2026-05-07 21:06 | 25.70993 | 121.69341 | 18901 ft | 429 kts | 47° |
| 2026-05-07 21:07 | 25.72953 | 121.71863 | 19288 ft | 432 kts | 47° |
| 2026-05-07 21:07 | 25.74921 | 121.74395 | 19704 ft | 435 kts | 47° |
| 2026-05-07 21:07 | 25.76901 | 121.76944 | 20119 ft | 438 kts | 47° |
| 2026-05-07 21:07 | 25.78894 | 121.79511 | 20547 ft | 441 kts | 47° |
| 2026-05-07 21:08 | 25.81023 | 121.81965 | 20898 ft | 443 kts | 39° |
| 2026-05-07 21:08 | 25.83403 | 121.84159 | 21308 ft | 445 kts | 35° |
| 2026-05-07 21:08 | 25.85880 | 121.86223 | 21743 ft | 447 kts | 33° |
| 2026-05-07 21:08 | 25.88413 | 121.88235 | 22147 ft | 449 kts | 32° |
| 2026-05-07 21:09 | 25.90974 | 121.90242 | 22568 ft | 452 kts | 32° |
| 2026-05-07 21:09 | 25.93550 | 121.92269 | 22974 ft | 455 kts | 32° |
| 2026-05-07 21:09 | 25.96140 | 121.94328 | 23393 ft | 459 kts | 32° |
| 2026-05-07 21:09 | 25.98734 | 121.96408 | 23747 ft | 462 kts | 32° |
| 2026-05-07 21:10 | 26.01341 | 121.98504 | 24088 ft | 464 kts | 32° |
| 2026-05-07 21:10 | 26.03958 | 122.00611 | 24451 ft | 466 kts | 32° |
| 2026-05-07 21:10 | 26.06614 | 122.02707 | 24839 ft | 468 kts | 32° |
| 2026-05-07 21:10 | 26.09286 | 122.04786 | 25237 ft | 470 kts | 31° |
| 2026-05-07 21:11 | 26.11974 | 122.06870 | 25638 ft | 472 kts | 31° |
| 2026-05-07 21:11 | 26.14678 | 122.08968 | 26010 ft | 476 kts | 31° |
| 2026-05-07 21:11 | 26.20143 | 122.13230 | 26800 ft | 482 kts | 31° |
| 2026-05-07 21:12 | 26.22890 | 122.15382 | 27212 ft | 484 kts | 32° |
| 2026-05-07 21:12 | 26.25610 | 122.17516 | 27619 ft | 486 kts | 32° |
| 2026-05-07 21:12 | 26.28381 | 122.19692 | 28002 ft | 489 kts | 31° |
| 2026-05-07 21:12 | 26.31168 | 122.21882 | 28397 ft | 492 kts | 31° |
| 2026-05-07 21:13 | 26.33971 | 122.24086 | 28772 ft | 494 kts | 31° |
| 2026-05-07 21:13 | 26.36794 | 122.26306 | 29147 ft | 497 kts | 31° |
| 2026-05-07 21:13 | 26.39624 | 122.28534 | 29536 ft | 500 kts | 31° |
| 2026-05-07 21:13 | 26.42470 | 122.30775 | 29871 ft | 503 kts | 31° |
| 2026-05-07 21:14 | 26.45332 | 122.33029 | 30185 ft | 505 kts | 31° |
| 2026-05-07 21:14 | 26.48209 | 122.35297 | 30465 ft | 508 kts | 31° |
| 2026-05-07 21:14 | 26.51111 | 122.37585 | 30743 ft | 511 kts | 31° |
| 2026-05-07 21:14 | 26.54016 | 122.39878 | 31036 ft | 513 kts | 31° |
| 2026-05-07 21:15 | 26.55949 | 122.41404 | 31219 ft | 514 kts | 31° |
| 2026-05-07 21:15 | 26.58873 | 122.43716 | 31493 ft | 516 kts | 31° |
| 2026-05-07 21:15 | 26.61808 | 122.46038 | 31772 ft | 519 kts | 31° |
| 2026-05-07 21:15 | 26.64800 | 122.48406 | 32035 ft | 521 kts | 31° |
| 2026-05-07 21:16 | 26.67725 | 122.50721 | 32278 ft | 523 kts | 31° |
| 2026-05-07 21:16 | 26.70695 | 122.53074 | 32530 ft | 525 kts | 31° |
| 2026-05-07 21:16 | 26.73675 | 122.55437 | 32779 ft | 526 kts | 31° |
| 2026-05-07 21:16 | 26.76667 | 122.57810 | 33007 ft | 528 kts | 31° |
| 2026-05-07 21:17 | 26.79665 | 122.60190 | 33293 ft | 529 kts | 31° |
| 2026-05-07 21:17 | 26.82667 | 122.62577 | 33670 ft | 527 kts | 31° |
| 2026-05-07 21:17 | 26.85655 | 122.64954 | 33981 ft | 527 kts | 30° |
| 2026-05-07 21:17 | 26.88640 | 122.67329 | 34280 ft | 526 kts | 30° |
| 2026-05-07 21:18 | 26.91616 | 122.69699 | 34597 ft | 524 kts | 30° |
| 2026-05-07 21:18 | 26.94589 | 122.72069 | 34920 ft | 522 kts | 30° |
| 2026-05-07 21:18 | 26.97545 | 122.74425 | 35209 ft | 521 kts | 30° |
| 2026-05-07 21:18 | 27.00491 | 122.76775 | 35517 ft | 519 kts | 30° |
| 2026-05-07 21:19 | 27.03430 | 122.79120 | 35807 ft | 518 kts | 30° |
| 2026-05-07 21:19 | 27.06360 | 122.81460 | 36092 ft | 517 kts | 29° |
| 2026-05-07 21:19 | 27.09291 | 122.83804 | 36360 ft | 516 kts | 29° |
| 2026-05-07 21:19 | 27.12206 | 122.86142 | 36625 ft | 515 kts | 29° |
| 2026-05-07 21:20 | 27.15113 | 122.88473 | 36885 ft | 514 kts | 29° |
| 2026-05-07 21:20 | 27.18015 | 122.90798 | 37150 ft | 512 kts | 29° |
| 2026-05-07 21:20 | 27.20905 | 122.93115 | 37420 ft | 510 kts | 29° |
| 2026-05-07 21:20 | 27.23785 | 122.95454 | 37699 ft | 510 kts | 30° |
| 2026-05-07 21:21 | 27.26567 | 122.97959 | 37803 ft | 515 kts | 33° |
| 2026-05-07 21:21 | 27.29284 | 123.00597 | 37971 ft | 517 kts | 34° |
| 2026-05-07 21:21 | 27.31973 | 123.03277 | 38173 ft | 517 kts | 35° |
| 2026-05-07 21:21 | 27.34657 | 123.05951 | 38384 ft | 515 kts | 34° |
| 2026-05-07 21:22 | 27.37356 | 123.08611 | 38593 ft | 514 kts | 34° |
| 2026-05-07 21:22 | 27.40053 | 123.11240 | 38761 ft | 513 kts | 33° |
| 2026-05-07 21:22 | 27.42724 | 123.13822 | 38901 ft | 512 kts | 33° |
| 2026-05-07 21:22 | 27.45464 | 123.16458 | 38996 ft | 513 kts | 33° |
| 2026-05-07 21:23 | 27.50926 | 123.21696 | 38998 ft | 516 kts | 33° |
| 2026-05-07 21:23 | 27.56347 | 123.26908 | 39002 ft | 515 kts | 33° |
| 2026-05-07 21:24 | 27.61793 | 123.32157 | 39003 ft | 515 kts | 33° |
| 2026-05-07 21:24 | 27.67238 | 123.37413 | 39006 ft | 516 kts | 33° |
| 2026-05-07 21:25 | 27.72702 | 123.42692 | 39007 ft | 517 kts | 33° |
| 2026-05-07 21:25 | 27.78160 | 123.47975 | 39004 ft | 517 kts | 33° |
| 2026-05-07 21:26 | 27.83624 | 123.53271 | 39026 ft | 517 kts | 33° |
| 2026-05-07 21:26 | 27.89083 | 123.58569 | 39012 ft | 518 kts | 33° |
| 2026-05-07 21:27 | 27.94544 | 123.63876 | 38998 ft | 518 kts | 33° |
| 2026-05-07 21:27 | 28.00012 | 123.69198 | 39015 ft | 518 kts | 33° |
| 2026-05-07 21:28 | 28.05471 | 123.74516 | 39020 ft | 518 kts | 33° |
| 2026-05-07 21:28 | 28.10938 | 123.79852 | 39019 ft | 519 kts | 33° |
| 2026-05-07 21:29 | 28.16398 | 123.85188 | 39020 ft | 519 kts | 33° |
| 2026-05-07 21:29 | 28.21857 | 123.90531 | 39023 ft | 519 kts | 33° |
| 2026-05-07 21:30 | 28.27331 | 123.95895 | 39025 ft | 521 kts | 33° |
| 2026-05-07 21:30 | 28.32495 | 124.01659 | 39021 ft | 532 kts | 44° |
| 2026-05-07 21:31 | 28.37073 | 124.08366 | 39025 ft | 535 kts | 46° |
| 2026-05-07 21:31 | 28.41472 | 124.15124 | 39033 ft | 536 kts | 47° |
| 2026-05-07 21:32 | 28.45895 | 124.21950 | 39018 ft | 537 kts | 47° |
| 2026-05-07 21:32 | 28.50333 | 124.28776 | 39026 ft | 537 kts | 47° |
| 2026-05-07 21:33 | 28.54780 | 124.35607 | 39028 ft | 537 kts | 47° |
| 2026-05-07 21:33 | 28.59217 | 124.42434 | 39036 ft | 537 kts | 47° |
| 2026-05-07 21:34 | 28.63672 | 124.49294 | 39019 ft | 539 kts | 47° |
| 2026-05-07 21:34 | 28.68117 | 124.56154 | 39025 ft | 538 kts | 47° |
| 2026-05-07 21:35 | 28.72555 | 124.63015 | 39028 ft | 538 kts | 47° |
| 2026-05-07 21:35 | 28.77602 | 124.69106 | 39028 ft | 519 kts | 29° |
| 2026-05-07 21:36 | 28.80592 | 124.71311 | 39029 ft | 506 kts | 18° |
| 2026-05-07 21:36 | 28.83773 | 124.72919 | 39032 ft | 498 kts | 12° |
| 2026-05-07 21:36 | 28.90265 | 124.75613 | 39027 ft | 495 kts | 10° |
| 2026-05-07 21:37 | 28.96777 | 124.78145 | 39030 ft | 495 kts | 10° |
| 2026-05-07 21:37 | 29.03246 | 124.80679 | 39033 ft | 495 kts | 10° |
| 2026-05-07 21:38 | 29.09749 | 124.83264 | 39037 ft | 495 kts | 10° |
| 2026-05-07 21:38 | 29.16261 | 124.85869 | 39071 ft | 495 kts | 10° |
| 2026-05-07 21:39 | 29.22771 | 124.88477 | 39040 ft | 497 kts | 10° |
| 2026-05-07 21:39 | 29.29293 | 124.91093 | 39045 ft | 497 kts | 10° |
| 2026-05-07 21:40 | 29.35827 | 124.93717 | 39048 ft | 497 kts | 10° |
| 2026-05-07 21:40 | 29.42358 | 124.96342 | 39055 ft | 499 kts | 10° |
| 2026-05-07 21:41 | 29.48934 | 124.98988 | 39048 ft | 501 kts | 10° |
| 2026-05-07 21:41 | 29.55512 | 125.01640 | 39052 ft | 501 kts | 10° |
| 2026-05-07 21:42 | 29.62100 | 125.04302 | 39055 ft | 502 kts | 10° |
| 2026-05-07 21:42 | 29.68692 | 125.06966 | 39053 ft | 503 kts | 10° |
| 2026-05-07 21:43 | 29.75289 | 125.09638 | 39056 ft | 503 kts | 10° |
| 2026-05-07 21:43 | 29.81897 | 125.12317 | 39067 ft | 503 kts | 10° |
| 2026-05-07 21:44 | 29.88505 | 125.14999 | 39060 ft | 504 kts | 10° |
| 2026-05-07 21:44 | 29.95132 | 125.17693 | 39058 ft | 505 kts | 10° |
| 2026-05-07 21:45 | 30.01748 | 125.20392 | 39080 ft | 505 kts | 10° |
| 2026-05-07 21:45 | 30.08366 | 125.23104 | 39065 ft | 505 kts | 10° |
| 2026-05-07 21:46 | 30.15000 | 125.25815 | 39063 ft | 505 kts | 10° |
| 2026-05-07 21:46 | 30.21625 | 125.28528 | 39093 ft | 506 kts | 10° |
| 2026-05-07 21:47 | 30.28257 | 125.31251 | 39067 ft | 505 kts | 10° |
| 2026-05-07 21:47 | 30.34878 | 125.33973 | 39067 ft | 505 kts | 10° |
| 2026-05-07 21:48 | 30.41497 | 125.36699 | 39066 ft | 505 kts | 10° |
| 2026-05-07 21:48 | 30.48124 | 125.39432 | 39070 ft | 505 kts | 10° |
| 2026-05-07 21:49 | 30.54732 | 125.42161 | 39069 ft | 505 kts | 10° |
| 2026-05-07 21:49 | 30.61352 | 125.44899 | 39069 ft | 505 kts | 10° |
| 2026-05-07 21:50 | 30.67921 | 125.47620 | 39070 ft | 504 kts | 10° |
| 2026-05-07 21:50 | 30.74572 | 125.50378 | 39061 ft | 504 kts | 10° |
| 2026-05-07 21:51 | 30.81171 | 125.53119 | 39070 ft | 504 kts | 10° |
| 2026-05-07 21:51 | 30.87730 | 125.55847 | 39072 ft | 504 kts | 10° |
| 2026-05-07 21:52 | 30.94330 | 125.58596 | 39070 ft | 504 kts | 10° |
| 2026-05-07 21:52 | 31.00938 | 125.61353 | 39069 ft | 504 kts | 10° |
| 2026-05-07 21:53 | 31.07535 | 125.64110 | 39070 ft | 504 kts | 10° |
| 2026-05-07 21:53 | 31.14132 | 125.66870 | 39068 ft | 504 kts | 10° |
| 2026-05-07 21:54 | 31.20740 | 125.69639 | 39072 ft | 504 kts | 10° |
| 2026-05-07 21:54 | 31.27389 | 125.72430 | 39075 ft | 504 kts | 10° |
| 2026-05-07 21:55 | 31.33955 | 125.75189 | 39078 ft | 505 kts | 10° |
| 2026-05-07 21:55 | 31.40561 | 125.77970 | 39073 ft | 505 kts | 10° |
| 2026-05-07 21:56 | 31.47162 | 125.80754 | 39078 ft | 505 kts | 10° |
| 2026-05-07 21:56 | 31.53781 | 125.83548 | 39073 ft | 505 kts | 10° |
| 2026-05-07 21:57 | 31.60392 | 125.86346 | 39072 ft | 506 kts | 10° |
| 2026-05-07 21:57 | 31.67020 | 125.89141 | 39075 ft | 506 kts | 9° |
| 2026-05-07 21:58 | 31.73653 | 125.91922 | 39072 ft | 507 kts | 10° |
| 2026-05-07 21:58 | 31.80290 | 125.94718 | 39075 ft | 507 kts | 10° |
| 2026-05-07 21:59 | 31.86937 | 125.97527 | 39075 ft | 508 kts | 9° |
| 2026-05-07 21:59 | 31.93592 | 126.00335 | 39072 ft | 509 kts | 9° |
| 2026-05-07 22:00 | 32.00259 | 126.03157 | 39075 ft | 509 kts | 9° |
| 2026-05-07 22:00 | 32.06916 | 126.05982 | 39081 ft | 509 kts | 9° |
| 2026-05-07 22:01 | 32.12452 | 126.08336 | 39067 ft | 509 kts | 9° |
| 2026-05-07 22:01 | 32.19125 | 126.11160 | 39076 ft | 509 kts | 9° |
| 2026-05-07 22:02 | 32.25790 | 126.13984 | 39076 ft | 509 kts | 9° |
| 2026-05-07 22:02 | 32.32467 | 126.16822 | 39072 ft | 510 kts | 9° |
| 2026-05-07 22:03 | 32.39133 | 126.19662 | 39075 ft | 510 kts | 9° |
| 2026-05-07 22:03 | 32.45802 | 126.22507 | 39078 ft | 510 kts | 9° |
| 2026-05-07 22:04 | 32.52488 | 126.25364 | 39061 ft | 510 kts | 9° |
| 2026-05-07 22:04 | 32.59162 | 126.28229 | 39072 ft | 510 kts | 9° |
| 2026-05-07 22:05 | 32.65847 | 126.31097 | 39083 ft | 511 kts | 9° |
| 2026-05-07 22:05 | 32.72531 | 126.33968 | 39072 ft | 511 kts | 9° |
| 2026-05-07 22:06 | 32.79218 | 126.36847 | 39090 ft | 511 kts | 9° |
| 2026-05-07 22:06 | 32.85918 | 126.39737 | 39075 ft | 512 kts | 9° |
| 2026-05-07 22:07 | 32.92615 | 126.42630 | 39075 ft | 512 kts | 9° |
| 2026-05-07 22:07 | 32.99321 | 126.45533 | 39067 ft | 512 kts | 9° |
| 2026-05-07 22:08 | 33.05979 | 126.48417 | 39072 ft | 512 kts | 9° |
| 2026-05-07 22:08 | 33.12679 | 126.51290 | 39069 ft | 512 kts | 9° |
| 2026-05-07 22:09 | 33.19377 | 126.54166 | 39092 ft | 512 kts | 9° |
| 2026-05-07 22:09 | 33.26089 | 126.57058 | 39077 ft | 513 kts | 9° |
| 2026-05-07 22:10 | 33.32795 | 126.59957 | 39082 ft | 513 kts | 9° |
| 2026-05-07 22:10 | 33.39510 | 126.62867 | 39090 ft | 513 kts | 9° |
| 2026-05-07 22:11 | 33.46217 | 126.65793 | 39078 ft | 513 kts | 9° |
| 2026-05-07 22:11 | 33.52932 | 126.68691 | 39074 ft | 510 kts | 7° |
| 2026-05-07 22:12 | 33.56339 | 126.69703 | 39097 ft | 497 kts | 358° |
| 2026-05-07 22:12 | 33.59737 | 126.70247 | 39085 ft | 492 kts | 355° |
| 2026-05-07 22:12 | 33.66526 | 126.71045 | 39079 ft | 490 kts | 354° |
| 2026-05-07 22:13 | 33.73321 | 126.71728 | 39078 ft | 490 kts | 354° |
| 2026-05-07 22:13 | 33.80108 | 126.72417 | 39074 ft | 490 kts | 354° |
| 2026-05-07 22:14 | 33.86900 | 126.73126 | 39075 ft | 490 kts | 354° |
| 2026-05-07 22:14 | 33.93703 | 126.73852 | 39072 ft | 490 kts | 354° |
| 2026-05-07 22:15 | 34.00458 | 126.74554 | 39072 ft | 491 kts | 354° |
| 2026-05-07 22:15 | 34.07312 | 126.75265 | 39063 ft | 491 kts | 354° |
| 2026-05-07 22:16 | 34.14084 | 126.75972 | 39064 ft | 492 kts | 354° |
| 2026-05-07 22:16 | 34.20900 | 126.76688 | 39064 ft | 492 kts | 354° |
| 2026-05-07 22:17 | 34.27771 | 126.77416 | 39055 ft | 493 kts | 354° |
| 2026-05-07 22:17 | 34.34558 | 126.78140 | 39057 ft | 493 kts | 354° |
| 2026-05-07 22:18 | 34.44866 | 126.79231 | 39054 ft | 494 kts | 354° |
| 2026-05-07 22:19 | 34.51677 | 126.79956 | 39052 ft | 495 kts | 354° |